LFST/SXB METAR and TAF weather

Enter ICAO airport designator
Station Type Date Time Source
LFST METAR 2020/01/28 11:30 UTC NOAA

LFST 281130Z AUTO 24025KT 9999 FEW028/// SCT052/// BKN076/// ///CB 06/01 Q1003 TEMPO 26030G45KT 4000 SHRA


Station Type Date Time Source
LFST Decoded METAR 2020/01/28 11:30 UTC NOAA

Strasbourg, France (LFST) 48-33N 007-38E 154M
Jan 28, 2020 - 06:30 AM EST / 2020.01.28 1130 UTC
Wind: from the WSW (240 degrees) at 29 MPH (25 KT):0
Visibility: greater than 7 mile(s):0
Sky conditions: mostly cloudy
Weather: Cumulonimbus clouds observed
Temperature: 42 F (6 C)
Dew Point: 33 F (1 C)
Relative Humidity: 70%
Pressure (altimeter): 29.62 in. Hg (1003 hPa)
ob: LFST 281130Z AUTO 24025KT 9999 FEW028/// SCT052/// BKN076/// ///CB 06/01 Q1003 TEMPO 26030G45KT 4000 SHRA
cycle: 11

Station Type Date Time Source
LFST TAF 2020/01/28 12:21 UTC NOAA

TAF LFST 281100Z 2812/2912 26020KT 9999 SCT045 BKN150
TEMPO 2812/2816 26020G35KT 4000 SHRA FEW040CB PROB40 2812/2814 26030G45KT
BECMG 2818/2820 20012KT
TEMPO 2821/2909 3000 SHRA FEW030TCU PROB40
TEMPO 2901/2905 26018G30KT

Example: see airport list